Time;durP1;ratioP1;P1;durP2;ratioP2;P2;SDS_P1;SDS_P2;PMS_P1;PMS_P2;Temp;Humidity;BMP_temperature;BMP_pressure;BME280_temperature;BME280_humidity;BME280_pressure;Samples;Min_cycle;Max_cycle;Signal;HPM_P1;HPM_P2
2022/04/16 00:00:15;;;;;;;18.85;10.07;;;;;;;;;;4958466;28;20115;-85
2022/04/16 00:02:42;;;;;;;16.23;10.30;;;;;;;;;;4958440;28;20138;-85
2022/04/16 00:05:08;;;;;;;21.70;10.93;;;;;;;;;;4976142;28;20071;-85
2022/04/16 00:07:35;;;;;;;17.98;10.13;;;;;;;;;;4975320;28;20107;-85
2022/04/16 00:10:01;;;;;;;17.80;10.07;;;;;;;;;;4957847;28;20051;-84
2022/04/16 00:12:27;;;;;;;13.43;9.88;;;;;;;;;;4958078;28;20051;-85
2022/04/16 00:14:54;;;;;;;16.83;10.55;;;;;;;;;;4957445;28;20087;-84
2022/04/16 00:17:21;;;;;;;18.73;10.73;;;;;;;;;;4957511;28;20039;-85
2022/04/16 00:19:47;;;;;;;15.38;10.32;;;;;;;;;;4975769;28;20097;-85
2022/04/16 00:22:14;;;;;;;18.48;10.95;;;;;;;;;;4958909;28;20605;-84
2022/04/16 00:24:40;;;;;;;18.35;11.15;;;;;;;;;;4957464;28;20094;-85
2022/04/16 00:27:07;;;;;;;17.98;11.23;;;;;;;;;;4957799;28;20823;-85
2022/04/16 00:29:34;;;;;;;16.08;9.98;;;;;;;;;;4958279;28;20594;-85
2022/04/16 00:32:00;;;;;;;17.38;10.35;;;;;;;;;;4957622;28;20059;-84
2022/04/16 00:34:26;;;;;;;18.30;12.00;;;;;;;;;;4958416;28;20582;-85
2022/04/16 00:36:53;;;;;;;18.08;10.60;;;;;;;;;;4975660;28;20051;-86
2022/04/16 00:39:19;;;;;;;21.58;11.60;;;;;;;;;;4957750;28;20150;-84
2022/04/16 00:41:45;;;;;;;16.90;10.65;;;;;;;;;;4958252;28;20146;-85
2022/04/16 00:44:12;;;;;;;18.40;10.77;;;;;;;;;;4957622;28;20059;-85
2022/04/16 00:46:39;;;;;;;20.02;11.45;;;;;;;;;;4975293;28;20055;-85
2022/04/16 00:49:06;;;;;;;19.05;11.35;;;;;;;;;;4957884;28;20095;-86
2022/04/16 00:51:32;;;;;;;18.38;11.60;;;;;;;;;;4957278;28;20498;-84
2022/04/16 00:53:59;;;;;;;20.10;12.05;;;;;;;;;;4957665;28;20090;-85
2022/04/16 00:56:25;;;;;;;16.90;11.00;;;;;;;;;;4974652;28;20138;-86
2022/04/16 00:58:52;;;;;;;19.25;11.13;;;;;;;;;;4957295;28;20525;-85
2022/04/16 01:01:18;;;;;;;20.63;12.13;;;;;;;;;;4958092;28;20138;-85
2022/04/16 01:03:46;;;;;;;25.35;12.55;;;;;;;;;;4958173;28;20470;-84
2022/04/16 01:06:15;;;;;;;19.25;11.30;;;;;;;;;;4976586;28;20110;-86
2022/04/16 01:08:44;;;;;;;19.75;12.20;;;;;;;;;;4983248;28;20039;-86
2022/04/16 01:11:14;;;;;;;20.48;12.00;;;;;;;;;;4982817;28;20074;-86
2022/04/16 01:13:47;;;;;;;17.85;11.20;;;;;;;;;;4964281;28;20083;-86
2022/04/16 01:16:13;;;;;;;23.95;11.57;;;;;;;;;;4958722;28;20068;-85
2022/04/16 01:18:46;;;;;;;21.50;12.57;;;;;;;;;;4938808;28;20757;-86
2022/04/16 01:21:17;;;;;;;20.55;12.98;;;;;;;;;;4955795;28;20527;-85
2022/04/16 01:23:43;;;;;;;21.15;12.63;;;;;;;;;;4939432;28;20147;-85
2022/04/16 01:26:09;;;;;;;18.80;12.45;;;;;;;;;;4956142;28;20143;-85
2022/04/16 01:28:35;;;;;;;22.65;12.48;;;;;;;;;;4938430;28;20055;-86
2022/04/16 01:31:02;;;;;;;23.65;12.85;;;;;;;;;;4938534;28;20080;-86
2022/04/16 01:33:30;;;;;;;21.02;13.13;;;;;;;;;;4938106;28;20079;-86
2022/04/16 01:35:56;;;;;;;20.42;12.30;;;;;;;;;;4938659;28;20072;-84
2022/04/16 01:38:25;;;;;;;20.33;12.50;;;;;;;;;;4938885;28;20087;-85
2022/04/16 01:40:55;;;;;;;19.95;12.52;;;;;;;;;;4955577;28;20507;-86
2022/04/16 01:43:21;;;;;;;21.25;12.57;;;;;;;;;;4955128;28;20087;-86
2022/04/16 01:45:49;;;;;;;23.30;13.10;;;;;;;;;;4937698;28;20592;-85
2022/04/16 01:48:16;;;;;;;21.80;12.77;;;;;;;;;;4955350;28;20143;-86
2022/04/16 01:50:43;;;;;;;24.38;12.65;;;;;;;;;;4937707;28;20116;-85
2022/04/16 01:53:09;;;;;;;21.67;12.40;;;;;;;;;;4937581;28;20586;-85
2022/04/16 01:55:35;;;;;;;24.40;14.07;;;;;;;;;;4938134;28;20063;-85
2022/04/16 01:58:04;;;;;;;22.35;12.32;;;;;;;;;;4937972;28;20146;-86
2022/04/16 02:00:30;;;;;;;24.60;13.57;;;;;;;;;;4956599;28;20051;-87
2022/04/16 02:02:57;;;;;;;23.55;13.10;;;;;;;;;;4956508;28;20151;-86
2022/04/16 02:05:24;;;;;;;20.25;12.95;;;;;;;;;;4954784;28;20502;-84
2022/04/16 02:07:50;;;;;;;24.15;13.43;;;;;;;;;;4956603;28;20090;-86
2022/04/16 02:10:17;;;;;;;23.83;13.50;;;;;;;;;;4974213;28;20511;-86
2022/04/16 02:12:43;;;;;;;24.30;13.55;;;;;;;;;;4956823;28;20572;-85
2022/04/16 02:15:10;;;;;;;23.23;13.00;;;;;;;;;;4972470;28;20676;-85
2022/04/16 02:17:36;;;;;;;28.67;13.20;;;;;;;;;;4955497;28;20097;-84
2022/04/16 02:20:06;;;;;;;23.08;12.80;;;;;;;;;;4973823;28;20062;-86
2022/04/16 02:22:43;;;;;;;23.98;13.27;;;;;;;;;;4974110;28;20581;-85
2022/04/16 02:25:10;;;;;;;21.92;12.52;;;;;;;;;;4956639;28;20059;-85
2022/04/16 02:27:36;;;;;;;23.38;13.38;;;;;;;;;;4956719;28;20512;-84
2022/04/16 02:30:30;;;;;;;22.55;13.38;;;;;;;;;;4957457;28;20051;-85
2022/04/16 02:32:56;;;;;;;23.27;13.48;;;;;;;;;;4951940;28;20142;-85
2022/04/16 02:35:23;;;;;;;24.00;13.63;;;;;;;;;;4972669;28;20138;-85
2022/04/16 02:37:49;;;;;;;26.15;14.45;;;;;;;;;;4956185;28;20059;-85
2022/04/16 02:40:16;;;;;;;25.50;13.05;;;;;;;;;;4973860;28;20083;-85
2022/04/16 02:42:43;;;;;;;24.20;13.43;;;;;;;;;;4955609;28;20531;-86
2022/04/16 02:47:56;;;;;;;26.08;13.25;;;;;;;;;;4973693;28;20057;-84
2022/04/16 02:50:25;;;;;;;23.45;13.50;;;;;;;;;;4956377;28;20146;-84
2022/04/16 02:52:53;;;;;;;25.02;14.05;;;;;;;;;;4956459;28;20533;-84
2022/04/16 02:55:19;;;;;;;23.65;13.27;;;;;;;;;;4955888;28;20522;-85
2022/04/16 02:57:46;;;;;;;24.85;13.38;;;;;;;;;;4956065;28;20090;-86
2022/04/16 03:00:13;;;;;;;23.73;13.85;;;;;;;;;;4973027;28;20106;-84
2022/04/16 03:02:41;;;;;;;28.70;15.38;;;;;;;;;;4955908;28;20525;-84
2022/04/16 03:05:08;;;;;;;23.63;13.70;;;;;;;;;;4973437;28;20097;-85
2022/04/16 03:07:35;;;;;;;25.23;13.95;;;;;;;;;;4955796;28;20086;-84
2022/04/16 03:10:05;;;;;;;27.65;14.43;;;;;;;;;;4955375;28;20071;-84
2022/04/16 03:12:42;;;;;;;28.08;14.32;;;;;;;;;;4955118;28;20512;-85
2022/04/16 03:17:54;;;;;;;25.55;14.35;;;;;;;;;;4971693;28;20150;-83
2022/04/16 03:20:20;;;;;;;22.98;13.55;;;;;;;;;;4955117;28;20102;-84
2022/04/16 03:22:47;;;;;;;26.67;13.68;;;;;;;;;;4951038;28;20091;-83
2022/04/16 03:25:13;;;;;;;28.38;13.63;;;;;;;;;;4935844;28;20574;-83
2022/04/16 03:27:39;;;;;;;24.55;14.20;;;;;;;;;;4936387;28;20063;-84
2022/04/16 03:30:07;;;;;;;31.23;14.38;;;;;;;;;;4936421;28;20055;-86
2022/04/16 03:32:37;;;;;;;27.02;14.15;;;;;;;;;;4953107;28;20056;-83
2022/04/16 03:35:05;;;;;;;23.02;13.05;;;;;;;;;;4951697;28;20103;-84
2022/04/16 03:37:32;;;;;;;29.38;14.07;;;;;;;;;;4952609;28;20044;-84
2022/04/16 03:39:58;;;;;;;25.65;12.93;;;;;;;;;;4952496;28;20585;-82
2022/04/16 03:42:25;;;;;;;26.27;14.20;;;;;;;;;;4934963;28;20540;-84
2022/04/16 03:44:51;;;;;;;26.90;14.55;;;;;;;;;;4935974;28;20150;-84
2022/04/16 03:47:18;;;;;;;29.83;14.25;;;;;;;;;;4941524;28;20091;-84
2022/04/16 03:49:44;;;;;;;28.92;14.23;;;;;;;;;;4954639;28;20058;-83
2022/04/16 03:52:10;;;;;;;33.42;14.55;;;;;;;;;;4955006;28;20644;-84
2022/04/16 04:00:08;;;;;;;26.98;14.15;;;;;;;;;;4971707;28;20533;-85
2022/04/16 04:02:36;;;;;;;23.52;13.82;;;;;;;;;;4954819;28;20118;-83
2022/04/16 04:05:03;;;;;;;27.23;14.43;;;;;;;;;;4954942;28;20502;-83
2022/04/16 04:07:30;;;;;;;24.15;13.65;;;;;;;;;;4971903;28;20174;-83
2022/04/16 04:09:57;;;;;;;27.65;13.95;;;;;;;;;;4972247;28;20055;-84
2022/04/16 04:12:23;;;;;;;27.38;13.98;;;;;;;;;;4953759;28;20082;-83
2022/04/16 04:14:50;;;;;;;25.35;14.05;;;;;;;;;;4953477;28;20597;-83
2022/04/16 04:17:16;;;;;;;29.33;14.18;;;;;;;;;;4952162;28;20586;-82
2022/04/16 04:19:44;;;;;;;27.45;14.10;;;;;;;;;;4972331;28;20515;-82
2022/04/16 04:22:11;;;;;;;23.90;13.45;;;;;;;;;;4971726;28;20138;-82
2022/04/16 04:24:38;;;;;;;28.92;14.38;;;;;;;;;;4954693;28;20066;-81
2022/04/16 04:27:06;;;;;;;27.05;14.05;;;;;;;;;;4954651;28;20052;-82
2022/04/16 04:29:33;;;;;;;26.95;14.85;;;;;;;;;;4958324;28;20107;-82
2022/04/16 04:31:59;;;;;;;28.10;14.18;;;;;;;;;;4958159;28;20083;-81
2022/04/16 04:34:25;;;;;;;28.75;14.40;;;;;;;;;;4958436;28;20063;-82
2022/04/16 04:36:52;;;;;;;26.15;14.73;;;;;;;;;;4958076;28;20134;-82
2022/04/16 04:39:22;;;;;;;;;;;;;;;;;;4958908;28;20106;-82
2022/04/16 04:41:49;;;;;;;29.63;14.27;;;;;;;;;;4957441;28;44982;-82
2022/04/16 04:44:15;;;;;;;27.55;14.40;;;;;;;;;;4957865;28;20063;-82
2022/04/16 04:46:42;;;;;;;25.77;14.82;;;;;;;;;;4975206;28;20083;-82
2022/04/16 04:49:09;;;;;;;30.58;15.50;;;;;;;;;;4957154;28;20051;-82
2022/04/16 04:51:35;;;;;;;28.67;14.80;;;;;;;;;;4957345;28;20090;-83
2022/04/16 04:54:02;;;;;;;30.85;15.07;;;;;;;;;;4975530;28;20503;-82
2022/04/16 04:56:29;;;;;;;28.90;14.73;;;;;;;;;;4957852;28;20063;-82
2022/04/16 04:58:55;;;;;;;28.55;15.30;;;;;;;;;;4958126;28;20529;-82
2022/04/16 05:01:22;;;;;;;33.30;16.15;;;;;;;;;;4975107;28;21026;-82
2022/04/16 05:03:48;;;;;;;35.53;15.73;;;;;;;;;;4958789;28;20047;-82
2022/04/16 05:06:14;;;;;;;30.15;15.48;;;;;;;;;;4975524;28;20153;-82
2022/04/16 05:08:41;;;;;;;32.40;15.75;;;;;;;;;;4958481;28;20677;-82
2022/04/16 05:11:07;;;;;;;36.35;17.38;;;;;;;;;;4958225;28;20515;-83
2022/04/16 05:13:33;;;;;;;31.67;16.05;;;;;;;;;;4956984;28;20056;-83
2022/04/16 05:16:00;;;;;;;30.02;15.93;;;;;;;;;;4958099;28;20761;-82
2022/04/16 05:18:31;;;;;;;28.52;15.88;;;;;;;;;;4959120;28;20154;-82
2022/04/16 05:20:57;;;;;;;35.35;17.30;;;;;;;;;;4957740;28;20518;-83
2022/04/16 05:23:24;;;;;;;29.40;16.15;;;;;;;;;;4958359;28;20138;-82
2022/04/16 05:25:51;;;;;;;33.65;17.73;;;;;;;;;;4975501;28;20055;-83
2022/04/16 05:28:18;;;;;;;34.53;18.02;;;;;;;;;;4974794;28;20107;-83
2022/04/16 05:30:48;;;;;;;40.92;18.15;;;;;;;;;;4975462;28;20502;-83
2022/04/16 05:36:00;;;;;;;34.42;17.63;;;;;;;;;;4972884;28;20082;-83
2022/04/16 05:38:26;;;;;;;37.42;17.90;;;;;;;;;;4955721;28;20138;-83
2022/04/16 05:40:52;;;;;;;41.38;18.67;;;;;;;;;;4973311;28;20087;-82
2022/04/16 05:43:19;;;;;;;39.83;19.45;;;;;;;;;;4974380;28;20055;-84
2022/04/16 05:45:45;;;;;;;37.05;18.75;;;;;;;;;;4974327;28;20067;-84
2022/04/16 05:48:12;;;;;;;34.00;18.60;;;;;;;;;;4957730;28;20070;-83
2022/04/16 05:50:38;;;;;;;37.03;18.42;;;;;;;;;;4956925;28;20138;-83
2022/04/16 05:53:05;;;;;;;33.80;18.08;;;;;;;;;;4974880;28;20078;-83
2022/04/16 05:55:34;;;;;;;36.63;18.48;;;;;;;;;;4956946;28;20055;-83
2022/04/16 05:58:01;;;;;;;37.67;19.05;;;;;;;;;;4974374;28;20059;-83
2022/04/16 06:00:28;;;;;;;35.67;19.10;;;;;;;;;;4956853;28;20091;-83
2022/04/16 06:02:58;;;;;;;34.97;18.67;;;;;;;;;;4956787;28;20055;-83
2022/04/16 06:05:24;;;;;;;39.42;19.98;;;;;;;;;;4956150;28;20578;-83
2022/04/16 06:07:50;;;;;;;36.30;19.88;;;;;;;;;;4956945;28;20063;-83
2022/04/16 06:10:19;;;;;;;41.63;20.30;;;;;;;;;;4957352;28;20059;-83
2022/04/16 06:12:46;;;;;;;33.72;19.38;;;;;;;;;;4973681;28;20110;-84
2022/04/16 06:15:12;;;;;;;39.38;20.77;;;;;;;;;;4973550;28;20438;-82
2022/04/16 06:17:39;;;;;;;40.17;20.65;;;;;;;;;;4973916;28;20081;-83
2022/04/16 06:20:07;;;;;;;35.13;19.77;;;;;;;;;;4956184;28;20146;-83
2022/04/16 06:22:34;;;;;;;36.22;20.00;;;;;;;;;;4956216;28;20043;-85
2022/04/16 06:25:00;;;;;;;37.92;19.42;;;;;;;;;;4973632;28;20144;-83
2022/04/16 06:27:32;;;;;;;38.78;19.85;;;;;;;;;;4957623;28;20055;-83
2022/04/16 06:29:59;;;;;;;37.67;19.80;;;;;;;;;;4963409;28;20079;-83
2022/04/16 06:32:25;;;;;;;41.20;20.25;;;;;;;;;;4963890;28;20043;-84
2022/04/16 06:34:52;;;;;;;37.08;19.23;;;;;;;;;;4981957;28;20510;-84
2022/04/16 06:37:18;;;;;;;40.92;19.95;;;;;;;;;;4960802;28;20099;-84
2022/04/16 06:39:44;;;;;;;37.03;20.13;;;;;;;;;;4952216;28;20134;-84
2022/04/16 06:42:11;;;;;;;40.42;19.98;;;;;;;;;;4956029;28;20815;-83
2022/04/16 06:44:37;;;;;;;39.05;19.55;;;;;;;;;;4957748;28;20086;-83
2022/04/16 06:47:04;;;;;;;39.95;20.60;;;;;;;;;;4957475;28;20577;-83
2022/04/16 06:49:30;;;;;;;41.88;20.30;;;;;;;;;;4958032;28;20507;-83
2022/04/16 06:51:56;;;;;;;38.13;19.67;;;;;;;;;;4958075;28;20138;-83
2022/04/16 06:54:23;;;;;;;42.03;21.42;;;;;;;;;;4957077;28;20051;-85
2022/04/16 06:56:49;;;;;;;40.08;21.17;;;;;;;;;;4972866;28;20095;-86
2022/04/16 06:59:15;;;;;;;39.15;21.15;;;;;;;;;;4954977;28;20614;-84
2022/04/16 07:01:41;;;;;;;40.50;19.55;;;;;;;;;;4954865;28;20093;-85
2022/04/16 07:04:08;;;;;;;37.00;20.25;;;;;;;;;;4972128;28;20051;-84
2022/04/16 07:06:34;;;;;;;36.75;19.30;;;;;;;;;;4955668;28;20079;-84
2022/04/16 07:09:01;;;;;;;33.67;18.73;;;;;;;;;;4972212;28;20153;-84
2022/04/16 07:11:27;;;;;;;33.88;18.70;;;;;;;;;;4955162;28;20147;-85
2022/04/16 07:13:53;;;;;;;32.33;17.88;;;;;;;;;;4956235;28;20440;-84
2022/04/16 07:16:20;;;;;;;31.65;17.55;;;;;;;;;;4965871;28;20055;-84
2022/04/16 07:18:46;;;;;;;31.98;16.98;;;;;;;;;;4954445;28;20067;-84
2022/04/16 07:21:13;;;;;;;28.65;16.23;;;;;;;;;;4955824;28;20491;-83
2022/04/16 07:23:40;;;;;;;28.23;16.73;;;;;;;;;;4955499;28;20526;-84
2022/04/16 07:26:06;;;;;;;30.98;16.85;;;;;;;;;;4967361;28;20123;-83
2022/04/16 07:28:32;;;;;;;25.95;15.75;;;;;;;;;;4968911;28;20099;-84
2022/04/16 07:30:59;;;;;;;27.35;15.95;;;;;;;;;;4953407;28;20126;-84
2022/04/16 07:33:31;;;;;;;28.70;16.10;;;;;;;;;;4963660;28;20135;-83
2022/04/16 07:35:57;;;;;;;26.30;14.77;;;;;;;;;;4972716;28;21149;-83
2022/04/16 07:38:25;;;;;;;25.38;15.10;;;;;;;;;;4968414;28;20063;-85
2022/04/16 07:40:51;;;;;;;24.17;15.50;;;;;;;;;;4952623;28;20102;-85
2022/04/16 07:43:29;;;;;;;25.08;15.15;;;;;;;;;;4950417;28;20067;-84
2022/04/16 07:45:55;;;;;;;24.23;14.20;;;;;;;;;;4951613;28;20051;-85
2022/04/16 07:48:22;;;;;;;27.17;14.77;;;;;;;;;;4963651;28;20138;-84
2022/04/16 07:50:48;;;;;;;21.05;13.38;;;;;;;;;;4953389;28;20107;-84
2022/04/16 07:53:15;;;;;;;22.15;14.68;;;;;;;;;;4963189;28;20274;-83
2022/04/16 07:55:44;;;;;;;24.20;14.40;;;;;;;;;;4969875;28;20083;-85
2022/04/16 07:58:10;;;;;;;24.48;13.88;;;;;;;;;;4952368;28;20055;-85
2022/04/16 08:00:37;;;;;;;23.70;13.30;;;;;;;;;;4953982;28;20103;-84
2022/04/16 08:03:03;;;;;;;25.08;14.25;;;;;;;;;;4953914;28;20062;-84
2022/04/16 08:05:30;;;;;;;22.38;13.13;;;;;;;;;;4955507;28;20134;-85
2022/04/16 08:07:58;;;;;;;23.50;13.48;;;;;;;;;;4958293;28;20039;-86
2022/04/16 08:10:25;;;;;;;22.23;12.48;;;;;;;;;;4959289;28;20074;-86
2022/04/16 08:12:51;;;;;;;26.38;12.38;;;;;;;;;;4957188;28;20063;-86
2022/04/16 08:15:18;;;;;;;21.08;13.52;;;;;;;;;;4972640;28;20051;-86
2022/04/16 08:17:44;;;;;;;21.30;12.45;;;;;;;;;;4953512;28;20087;-86
2022/04/16 08:20:10;;;;;;;19.95;11.40;;;;;;;;;;4966655;28;20055;-87
2022/04/16 08:22:38;;;;;;;18.77;11.65;;;;;;;;;;4947822;28;20050;-85
2022/04/16 08:27:51;;;;;;;19.77;12.10;;;;;;;;;;4967958;28;20475;-86
2022/04/16 08:30:18;;;;;;;19.27;11.35;;;;;;;;;;4970309;28;20079;-84
2022/04/16 08:32:45;;;;;;;18.40;11.77;;;;;;;;;;4968450;28;20573;-85
2022/04/16 08:35:12;;;;;;;20.65;12.73;;;;;;;;;;4968828;28;20043;-85
2022/04/16 08:37:40;;;;;;;19.23;12.18;;;;;;;;;;4952581;28;20118;-85
2022/04/16 08:40:07;;;;;;;20.40;12.40;;;;;;;;;;4965064;28;20146;-86
2022/04/16 08:42:34;;;;;;;16.73;10.98;;;;;;;;;;4968353;28;20055;-84
2022/04/16 08:45:01;;;;;;;17.63;11.15;;;;;;;;;;4943874;28;20186;-85
2022/04/16 08:47:27;;;;;;;18.48;11.15;;;;;;;;;;4947782;28;20051;-85
2022/04/16 08:49:54;;;;;;;20.42;11.35;;;;;;;;;;4953434;28;20087;-84
2022/04/16 08:52:22;;;;;;;17.73;11.18;;;;;;;;;;4965329;28;20138;-85
2022/04/16 08:54:48;;;;;;;19.02;11.70;;;;;;;;;;4951895;28;20526;-85
2022/04/16 08:57:14;;;;;;;16.92;10.55;;;;;;;;;;4953888;28;20088;-84
2022/04/16 08:59:51;;;;;;;17.15;11.07;;;;;;;;;;4955013;28;20126;-85
2022/04/16 09:02:18;;;;;;;17.67;10.43;;;;;;;;;;4952791;28;20047;-87
2022/04/16 09:04:45;;;;;;;15.45;9.95;;;;;;;;;;4966731;28;20055;-85
2022/04/16 09:07:12;;;;;;;15.18;9.82;;;;;;;;;;4947535;28;20146;-85
2022/04/16 09:09:39;;;;;;;14.20;9.00;;;;;;;;;;4952524;28;20097;-85
2022/04/16 09:12:14;;;;;;;15.60;9.77;;;;;;;;;;4950963;28;20059;-85
2022/04/16 09:14:44;;;;;;;14.65;9.10;;;;;;;;;;4951609;28;20055;-85
2022/04/16 09:17:15;;;;;;;13.57;8.90;;;;;;;;;;4949422;28;20972;-84
2022/04/16 09:19:41;;;;;;;;;;;;;;;;;;4950026;28;20090;-85
2022/04/16 09:22:08;;;;;;;12.98;8.05;;;;;;;;;;4970941;28;47427;-85
2022/04/16 09:24:44;;;;;;;13.25;7.93;;;;;;;;;;4956761;28;20074;-85
2022/04/16 09:27:10;;;;;;;9.82;6.38;;;;;;;;;;4970822;28;20082;-85
2022/04/16 09:29:37;;;;;;;11.20;7.03;;;;;;;;;;4955559;28;20075;-85
2022/04/16 09:32:03;;;;;;;9.45;6.10;;;;;;;;;;4973198;28;21366;-85
2022/04/16 09:34:30;;;;;;;11.02;5.88;;;;;;;;;;4958433;28;20051;-85
2022/04/16 09:36:56;;;;;;;10.00;6.40;;;;;;;;;;4972411;28;20052;-85
2022/04/16 09:39:22;;;;;;;9.30;6.03;;;;;;;;;;4951447;28;20055;-83
2022/04/16 09:41:53;;;;;;;9.15;6.03;;;;;;;;;;4949546;28;20122;-84
2022/04/16 09:44:20;;;;;;;10.80;5.28;;;;;;;;;;4963303;28;20063;-85
2022/04/16 09:46:51;;;;;;;10.32;5.20;;;;;;;;;;4970927;28;20673;-85
2022/04/16 09:49:17;;;;;;;10.00;6.10;;;;;;;;;;4944627;28;20058;-84
2022/04/16 09:51:45;;;;;;;10.07;6.25;;;;;;;;;;4963537;28;20055;-85
2022/04/16 09:54:12;;;;;;;10.05;6.40;;;;;;;;;;4942938;28;22848;-85
2022/04/16 09:56:40;;;;;;;9.05;5.57;;;;;;;;;;4961515;28;20059;-81
2022/04/16 09:59:08;;;;;;;7.75;4.97;;;;;;;;;;4950952;28;20055;-82
2022/04/16 10:01:38;;;;;;;10.07;4.82;;;;;;;;;;4948802;28;20945;-82
2022/04/16 10:04:06;;;;;;;9.40;5.63;;;;;;;;;;4948889;28;20059;-82
2022/04/16 10:06:33;;;;;;;8.63;5.32;;;;;;;;;;4947911;28;20134;-82
2022/04/16 10:09:13;;;;;;;10.13;4.57;;;;;;;;;;4966780;28;20062;-82
2022/04/16 10:14:41;;;;;;;8.82;5.53;;;;;;;;;;4965069;28;20087;-82
2022/04/16 10:17:15;;;;;;;9.25;6.03;;;;;;;;;;4968945;28;20082;-82
2022/04/16 10:19:45;;;;;;;8.52;5.55;;;;;;;;;;4952223;28;20061;-81
2022/04/16 10:22:25;;;;;;;9.00;5.70;;;;;;;;;;4938770;28;20040;-81
2022/04/16 10:24:57;;;;;;;9.67;5.70;;;;;;;;;;4948229;28;20323;-81
2022/04/16 10:27:29;;;;;;;7.82;4.93;;;;;;;;;;4951594;28;20135;-82
2022/04/16 10:29:59;;;;;;;8.50;4.70;;;;;;;;;;4952870;28;20126;-81
2022/04/16 10:32:26;;;;;;;;;;;;;;;;;;4954243;28;20083;-81
2022/04/16 10:35:01;;;;;;;8.38;5.45;;;;;;;;;;4951377;28;45985;-81
2022/04/16 10:37:35;;;;;;;7.95;5.40;;;;;;;;;;4953860;28;20055;-81
2022/04/16 10:40:02;;;;;;;9.82;4.85;;;;;;;;;;4947867;28;21326;-81
2022/04/16 10:42:30;;;;;;;6.95;4.35;;;;;;;;;;4971126;28;20092;-81
2022/04/16 10:45:16;;;;;;;8.10;4.70;;;;;;;;;;4954627;28;20491;-81
2022/04/16 10:47:43;;;;;;;7.72;4.80;;;;;;;;;;4952972;28;20051;-81
2022/04/16 10:50:17;;;;;;;7.28;4.82;;;;;;;;;;4969891;28;20075;-81
2022/04/16 10:52:55;;;;;;;7.40;5.00;;;;;;;;;;4955058;28;20059;-80
2022/04/16 10:55:25;;;;;;;8.80;4.78;;;;;;;;;;4951023;28;20059;-81
2022/04/16 10:57:58;;;;;;;8.52;4.93;;;;;;;;;;4970553;28;20503;-81
2022/04/16 11:00:35;;;;;;;9.35;5.18;;;;;;;;;;4969822;28;20087;-81
2022/04/16 11:03:06;;;;;;;7.13;4.25;;;;;;;;;;4956354;28;20062;-80
2022/04/16 11:05:36;;;;;;;7.88;4.18;;;;;;;;;;4952161;28;20086;-80
2022/04/16 11:08:04;;;;;;;7.63;4.63;;;;;;;;;;4952976;28;20110;-80
2022/04/16 11:10:31;;;;;;;7.00;4.25;;;;;;;;;;4950086;28;20586;-81
2022/04/16 11:12:58;;;;;;;6.70;4.40;;;;;;;;;;4968923;28;20078;-80
2022/04/16 11:15:26;;;;;;;7.70;4.80;;;;;;;;;;4952047;28;20070;-80
2022/04/16 11:17:59;;;;;;;7.65;4.72;;;;;;;;;;4951734;28;20053;-80
2022/04/16 11:20:27;;;;;;;7.65;5.38;;;;;;;;;;4951164;28;20087;-80
2022/04/16 11:22:54;;;;;;;8.35;4.85;;;;;;;;;;4967502;28;20047;-80
2022/04/16 11:25:24;;;;;;;7.13;4.60;;;;;;;;;;4952043;28;20087;-80
2022/04/16 11:36:06;;;;;;;8.15;4.93;;;;;;;;;;4969263;28;20106;-79
2022/04/16 11:38:34;;;;;;;8.00;4.63;;;;;;;;;;4970683;28;20083;-79
2022/04/16 11:41:02;;;;;;;7.28;4.97;;;;;;;;;;4953936;28;20090;-80
2022/04/16 11:43:29;;;;;;;8.05;4.50;;;;;;;;;;4972430;28;20146;-80
2022/04/16 11:45:55;;;;;;;8.35;4.97;;;;;;;;;;4952901;28;20063;-80
2022/04/16 11:48:22;;;;;;;8.43;4.70;;;;;;;;;;4954708;28;20051;-79
2022/04/16 11:50:48;;;;;;;7.75;5.35;;;;;;;;;;4953823;28;20142;-79
2022/04/16 11:53:15;;;;;;;8.07;4.88;;;;;;;;;;4971751;28;20094;-78
2022/04/16 11:55:51;;;;;;;7.32;4.40;;;;;;;;;;4972555;28;20161;-78
2022/04/16 11:58:17;;;;;;;8.70;4.50;;;;;;;;;;4972206;28;20147;-78
2022/04/16 12:00:55;;;;;;;6.78;4.03;;;;;;;;;;4955708;28;20110;-79
2022/04/16 12:03:22;;;;;;;8.23;4.20;;;;;;;;;;4973364;28;20047;-79
2022/04/16 12:05:50;;;;;;;8.68;4.43;;;;;;;;;;4958545;28;20082;-79
2022/04/16 12:08:19;;;;;;;8.50;4.20;;;;;;;;;;4956550;28;20055;-79
2022/04/16 12:10:49;;;;;;;6.43;4.35;;;;;;;;;;4957315;28;20518;-79
2022/04/16 12:13:15;;;;;;;7.18;4.60;;;;;;;;;;4955145;28;20374;-78
2022/04/16 12:15:45;;;;;;;7.30;4.13;;;;;;;;;;4970889;28;20055;-78
2022/04/16 16:21:09;;;;;;;5.00;2.40;;;;;;;;;;4959356;28;20534;-76
2022/04/16 16:23:39;;;;;;;5.55;2.30;;;;;;;;;;4960112;28;20079;-78
2022/04/16 16:26:05;;;;;;;4.53;2.30;;;;;;;;;;4957160;28;20122;-77
2022/04/16 16:28:35;;;;;;;4.90;2.33;;;;;;;;;;4954146;28;20567;-76
2022/04/16 16:31:01;;;;;;;6.68;2.60;;;;;;;;;;4967378;28;20197;-77
2022/04/16 16:33:27;;;;;;;4.20;2.28;;;;;;;;;;4958332;28;20150;-78
2022/04/16 16:35:54;;;;;;;5.85;2.55;;;;;;;;;;4949406;28;20150;-79
2022/04/16 16:38:22;;;;;;;5.65;3.10;;;;;;;;;;4969811;28;20363;-78
2022/04/16 16:40:48;;;;;;;6.45;2.90;;;;;;;;;;4968794;28;20297;-77
2022/04/16 16:43:16;;;;;;;5.97;2.80;;;;;;;;;;4968179;28;20117;-77
2022/04/16 16:45:42;;;;;;;5.50;2.35;;;;;;;;;;4953918;28;20115;-78
2022/04/16 16:48:09;;;;;;;4.55;2.58;;;;;;;;;;4954277;28;20059;-78
2022/04/16 16:50:35;;;;;;;4.68;2.40;;;;;;;;;;4954007;28;20110;-79
2022/04/16 16:53:03;;;;;;;5.53;2.50;;;;;;;;;;4971403;28;20078;-78
2022/04/16 16:55:29;;;;;;;8.00;2.30;;;;;;;;;;4954662;28;20047;-78
2022/04/16 16:57:57;;;;;;;5.53;2.45;;;;;;;;;;4955562;28;20766;-78
2022/04/16 17:00:25;;;;;;;4.30;2.25;;;;;;;;;;4953201;28;20115;-79
2022/04/16 17:05:37;;;;;;;5.78;2.88;;;;;;;;;;4971575;28;20601;-79
2022/04/16 17:08:03;;;;;;;6.63;2.75;;;;;;;;;;4972199;28;20051;-78
2022/04/16 17:10:31;;;;;;;5.13;2.63;;;;;;;;;;4953277;28;20357;-78
2022/04/16 17:12:57;;;;;;;5.70;2.83;;;;;;;;;;4969569;28;20901;-78
2022/04/16 17:20:54;;;;;;;5.65;2.35;;;;;;;;;;4967435;28;20538;-78
2022/04/16 17:23:21;;;;;;;5.75;2.60;;;;;;;;;;4953741;28;20043;-77
2022/04/16 17:25:47;;;;;;;5.45;2.50;;;;;;;;;;4953666;28;20051;-80
2022/04/16 17:28:14;;;;;;;4.28;2.30;;;;;;;;;;4968228;28;20403;-79
2022/04/16 17:30:40;;;;;;;4.20;2.20;;;;;;;;;;4947715;28;20047;-79
2022/04/16 17:33:07;;;;;;;5.35;2.00;;;;;;;;;;4967316;28;20324;-78
2022/04/16 17:35:33;;;;;;;6.00;1.90;;;;;;;;;;4945621;28;20590;-79
2022/04/16 17:38:00;;;;;;;5.93;2.10;;;;;;;;;;4957219;28;20148;-79
2022/04/16 17:40:27;;;;;;;5.00;2.25;;;;;;;;;;4954802;28;20378;-79
2022/04/16 17:42:53;;;;;;;7.00;1.98;;;;;;;;;;4973474;28;20423;-79
2022/04/16 17:45:20;;;;;;;5.57;2.28;;;;;;;;;;4954500;28;20051;-79
2022/04/16 17:47:47;;;;;;;4.05;1.50;;;;;;;;;;4955253;28;20060;-78
2022/04/16 17:50:13;;;;;;;4.72;1.80;;;;;;;;;;4971636;28;20086;-78
2022/04/16 18:37:45;;;;;;;3.92;1.80;;;;;;;;;;4967983;28;20858;-79
2022/04/16 18:40:12;;;;;;;4.78;2.00;;;;;;;;;;4967236;28;20059;-79
2022/04/16 18:42:39;;;;;;;5.32;2.13;;;;;;;;;;4945774;28;20058;-80
2022/04/16 18:45:06;;;;;;;4.45;1.90;;;;;;;;;;4966168;28;20118;-79
2022/04/16 18:47:32;;;;;;;4.43;1.73;;;;;;;;;;4945528;28;20047;-79
2022/04/16 18:49:59;;;;;;;5.80;2.28;;;;;;;;;;4953396;28;20059;-80
2022/04/16 18:52:31;;;;;;;5.13;2.38;;;;;;;;;;4973177;28;20054;-79
2022/04/16 18:55:01;;;;;;;6.85;2.60;;;;;;;;;;4959013;28;20154;-78
2022/04/16 18:57:28;;;;;;;4.55;2.10;;;;;;;;;;4960689;28;20039;-79
2022/04/16 18:59:54;;;;;;;5.82;2.08;;;;;;;;;;4956740;28;20823;-79
2022/04/16 19:07:55;;;;;;;4.45;2.13;;;;;;;;;;4976562;28;20814;-79
2022/04/16 19:10:21;;;;;;;6.68;2.30;;;;;;;;;;4959222;28;20059;-80
2022/04/16 19:12:50;;;;;;;5.35;2.40;;;;;;;;;;4977113;28;20055;-80
2022/04/16 19:15:16;;;;;;;6.07;2.33;;;;;;;;;;4974598;28;21099;-80
2022/04/16 19:17:42;;;;;;;5.93;2.42;;;;;;;;;;4961688;28;20087;-79
2022/04/16 19:20:09;;;;;;;12.35;2.70;;;;;;;;;;4956554;28;20070;-81
2022/04/16 19:22:35;;;;;;;6.25;2.83;;;;;;;;;;4951710;28;20071;-80
2022/04/16 19:25:02;;;;;;;7.85;3.15;;;;;;;;;;4975372;28;20062;-79
2022/04/16 19:27:28;;;;;;;6.28;2.65;;;;;;;;;;4974504;28;20055;-81
2022/04/16 19:29:54;;;;;;;5.28;2.60;;;;;;;;;;4956606;28;20150;-81
2022/04/16 19:32:21;;;;;;;7.55;2.45;;;;;;;;;;4957222;28;20560;-81
2022/04/16 19:34:47;;;;;;;9.55;2.90;;;;;;;;;;4957538;28;20063;-81
2022/04/16 19:37:15;;;;;;;7.55;3.00;;;;;;;;;;4957650;28;20051;-81
2022/04/16 19:39:41;;;;;;;7.97;3.25;;;;;;;;;;4957688;28;20052;-81
2022/04/16 19:42:10;;;;;;;8.07;3.40;;;;;;;;;;4955492;28;20056;-79
2022/04/16 19:44:36;;;;;;;9.80;3.80;;;;;;;;;;4956747;28;20070;-81
2022/04/16 19:47:02;;;;;;;8.90;3.50;;;;;;;;;;4956818;28;20055;-80
2022/04/16 19:49:30;;;;;;;7.80;3.55;;;;;;;;;;4958791;28;20066;-81
2022/04/16 19:51:56;;;;;;;11.90;4.65;;;;;;;;;;4955721;28;20036;-80
2022/04/16 19:54:22;;;;;;;13.00;5.13;;;;;;;;;;4956609;28;20086;-79
2022/04/16 19:56:50;;;;;;;10.85;4.65;;;;;;;;;;4956874;28;20119;-81
2022/04/16 19:59:17;;;;;;;10.90;5.50;;;;;;;;;;4939722;28;20098;-79